»·PEaware :: N664NT KEWR-KJFK

N664NT :: KEWR-KJFK

FLIGHT INFORMATION

Flight Status: Arrived
Operator: Privately registered:
United States
More flights under this callsign
Pilot: Anonymous 328 (328)
Aircraft: Unknown
(GA7C)
More flights by this aircraft type
Origin: KEWR Newark Intl
United States
Destination: KJFK Kennedy Intl
United States
More flights between these airports :: More routes between these airports
Route: EWR4 BREZY V39 CMK V419 JUDDS NELIE MAD V1 DPK
File this flight plan on PilotEdge
Remarks:
Altitude:
(Current/Filed)
11,000ft
Speed:
(Current/Filed)
0kts
Departed: 17-Apr-23 06:07 AM
Arrived: 17-Apr-23 06:57 AM
Distance/Time
Traveled:
11nm/0:50
Distance/Time
To Go:
Arrived

Flight Plot

Page will automatically refresh every two minutes.

Flight plan parsing failed; only flown route is shown


Map Options




Map Legend


Flown Route
Filed Route
Departure Airport
Arrival Airport
Navaid (VOR, NDB)
Fix

Horizontal Profiles

Position Reports

Time Latitude Longitude Heading Altitude Ground
Speed
17-Apr-23 05:59 40.692749 -74.166794 205 19ft 5kts
17-Apr-23 06:00 40.689445 -74.168892 205 19ft 14kts
17-Apr-23 06:01 40.685730 -74.171272 207 19ft 26kts
17-Apr-23 06:02 40.679008 -74.175537 205 19ft 23kts
17-Apr-23 06:03 40.675163 -74.178062 245 19ft 1kts
17-Apr-23 06:04 40.675182 -74.178307 299 19ft 12kts
17-Apr-23 06:05 40.675797 -74.179108 23 19ft 0kts
17-Apr-23 06:06 40.694691 -74.167122 26 838ft 204kts
17-Apr-23 06:07 40.737671 -74.111214 46 4065ft 223kts
17-Apr-23 06:08 40.791718 -74.083252 329 5776ft 265kts
17-Apr-23 06:09 40.850800 -74.138939 5 9001ft 284kts
17-Apr-23 06:10 40.929585 -74.130157 0 9004ft 284kts
17-Apr-23 06:11 41.008770 -74.131180 358 9638ft 286kts
17-Apr-23 06:12 41.098763 -74.133247 0 11005ft 371kts
17-Apr-23 06:13 41.175724 -74.055717 72 11012ft 373kts
17-Apr-23 06:14 41.204998 -73.923355 73 11079ft 370kts
17-Apr-23 06:15 41.232208 -73.791405 75 11093ft 372kts
17-Apr-23 06:16 41.257195 -73.657784 76 11161ft 371kts
17-Apr-23 06:17 41.305714 -73.539551 44 11152ft 371kts
17-Apr-23 06:18 41.381691 -73.444412 43 10977ft 376kts
17-Apr-23 06:19 41.455761 -73.347252 46 10987ft 374kts
17-Apr-23 06:20 41.528755 -73.248360 44 11009ft 373kts
17-Apr-23 06:21 41.602627 -73.150841 44 11009ft 373kts
17-Apr-23 06:22 41.675602 -73.052620 45 11005ft 373kts
17-Apr-23 06:23 41.748295 -72.953346 45 10679ft 371kts
17-Apr-23 06:24 41.817616 -72.855179 57 9197ft 338kts
17-Apr-23 06:25 41.821636 -72.746979 118 7960ft 280kts
17-Apr-23 06:26 41.757477 -72.707542 183 6498ft 276kts
17-Apr-23 06:27 41.684952 -72.734528 202 4561ft 269kts
17-Apr-23 06:28 41.616589 -72.772133 211 2671ft 261kts
17-Apr-23 06:29 41.607841 -72.859344 294 1997ft 257kts
17-Apr-23 06:30 41.667568 -72.865219 33 2006ft 257kts
17-Apr-23 06:31 41.725109 -72.806725 45 2781ft 268kts
17-Apr-23 06:32 41.759075 -72.725464 104 2381ft 261kts
17-Apr-23 06:33 41.701012 -72.686073 181 2199ft 257kts
17-Apr-23 06:34 41.628387 -72.687302 180 5257ft 263kts
17-Apr-23 06:35 41.552498 -72.688438 180 9482ft 284kts
17-Apr-23 06:36 41.465969 -72.689827 180 10005ft 364kts
17-Apr-23 06:37 41.363667 -72.691429 180 10003ft 367kts
17-Apr-23 06:38 41.278984 -72.734138 222 10005ft 328kts
17-Apr-23 06:39 41.210686 -72.814285 221 10005ft 328kts
17-Apr-23 06:40 41.142208 -72.894691 221 10003ft 328kts
17-Apr-23 06:41 41.074497 -72.974167 221 10006ft 301kts
17-Apr-23 06:42 41.016247 -73.042366 221 9542ft 260kts
17-Apr-23 06:43 40.962944 -73.104668 221 7929ft 251kts
17-Apr-23 06:44 40.910801 -73.165558 221 6340ft 249kts
17-Apr-23 06:45 40.875637 -73.240227 248 4818ft 240kts
17-Apr-23 06:46 40.851673 -73.321869 248 3225ft 236kts
17-Apr-23 06:47 40.828976 -73.399086 248 2499ft 195kts
17-Apr-23 06:49 40.811066 -73.459831 248 2503ft 171kts
17-Apr-23 06:50 40.796413 -73.513451 236 2505ft 150kts
17-Apr-23 06:51 40.779190 -73.563286 246 2505ft 150kts
17-Apr-23 06:52 40.764240 -73.614731 244 2504ft 150kts
17-Apr-23 06:53 40.738304 -73.654228 216 2276ft 143kts
17-Apr-23 06:54 40.708397 -73.689232 222 1647ft 146kts
17-Apr-23 06:55 40.680340 -73.726898 214 771ft 142kts
17-Apr-23 06:56 40.646461 -73.753899 206 75ft 141kts
17-Apr-23 06:57 40.631393 -73.765709 211 20ft 0kts
17-Apr-23 06:58 40.630028 -73.767342 232 20ft 26kts
17-Apr-23 06:59 40.629280 -73.769272 264 20ft 4kts
17-Apr-23 07:00 40.629299 -73.769577 286 20ft 0kts
17-Apr-23 07:01 40.629299 -73.769577 286 20ft 0kts
17-Apr-23 07:02 40.629299 -73.769577 286 20ft 0kts
17-Apr-23 07:03 40.629299 -73.769577 286 20ft 0kts
17-Apr-23 07:04 40.629299 -73.769577 286 20ft 0kts
17-Apr-23 07:05 40.629299 -73.769577 286 20ft 0kts
17-Apr-23 07:06 40.854198 -74.055504 280 15ft 0kts
17-Apr-23 07:07 40.854198 -74.055504 280 15ft 0kts
17-Apr-23 07:08 40.854198 -74.055504 280 15ft 0kts
17-Apr-23 07:09 40.854198 -74.055504 280 15ft 0kts
17-Apr-23 07:10 40.854198 -74.055504 279 15ft 0kts
17-Apr-23 07:11 40.854198 -74.055504 279 15ft 0kts

Navigation Log

Ident Type
Flight plan parsing failed, navigation log unavailable